Time;durP1;ratioP1;P1;durP2;ratioP2;P2;SDS_P1;SDS_P2;PMS_P1;PMS_P2;Temp;Humidity;BMP_temperature;BMP_pressure;BME280_temperature;BME280_humidity;BME280_pressure;Samples;Min_cycle;Max_cycle;Signal;HPM_P1;HPM_P2
2021/04/22 00:00:44;;;;;;;21.13;4.32;;;;;;;;;;5090488;28;20054;-77
2021/04/22 00:03:11;;;;;;;28.45;5.25;;;;;;;;;;5089220;28;20036;-76
2021/04/22 00:05:42;;;;;;;15.25;3.92;;;;;;;;;;5090372;28;20103;-76
2021/04/22 00:08:09;;;;;;;22.10;5.00;;;;;;;;;;5092695;28;20066;-75
2021/04/22 00:10:35;;;;;;;33.05;4.80;;;;;;;;;;5082753;28;20694;-78
2021/04/22 00:13:01;;;;;;;20.20;4.15;;;;;;;;;;5090501;28;20597;-76
2021/04/22 00:15:27;;;;;;;22.65;4.70;;;;;;;;;;5093177;28;20032;-76
2021/04/22 00:17:54;;;;;;;24.55;4.13;;;;;;;;;;5085895;28;20052;-75
2021/04/22 00:20:20;;;;;;;23.60;5.00;;;;;;;;;;5095140;28;20044;-79
2021/04/22 00:22:46;;;;;;;15.43;3.97;;;;;;;;;;5084959;28;20050;-77
2021/04/22 00:25:13;;;;;;;21.50;4.85;;;;;;;;;;5081202;28;20021;-78
2021/04/22 00:27:39;;;;;;;32.22;5.78;;;;;;;;;;5076421;28;20492;-78
2021/04/22 00:30:07;;;;;;;28.52;5.93;;;;;;;;;;5091335;28;20028;-75
2021/04/22 00:32:33;;;;;;;29.77;6.38;;;;;;;;;;5088682;28;20111;-75
2021/04/22 00:34:59;;;;;;;25.95;5.93;;;;;;;;;;5089576;28;20413;-76
2021/04/22 00:37:25;;;;;;;26.65;5.13;;;;;;;;;;5090444;28;20486;-75
2021/04/22 00:39:51;;;;;;;27.77;4.95;;;;;;;;;;5089536;28;20028;-76
2021/04/22 00:42:19;;;;;;;22.75;4.40;;;;;;;;;;5085607;28;20055;-75
2021/04/22 00:44:47;;;;;;;27.00;6.95;;;;;;;;;;5088367;28;20024;-76
2021/04/22 00:47:14;;;;;;;28.50;4.97;;;;;;;;;;5092982;28;20016;-76
2021/04/22 00:49:41;;;;;;;30.77;6.45;;;;;;;;;;5090045;28;20024;-80
2021/04/22 00:52:07;;;;;;;21.77;3.97;;;;;;;;;;5087768;28;20032;-75
2021/04/22 00:54:33;;;;;;;26.13;5.05;;;;;;;;;;5090331;28;20157;-76
2021/04/22 00:56:59;;;;;;;23.25;5.97;;;;;;;;;;5091783;28;20103;-76
2021/04/22 00:59:25;;;;;;;26.02;5.57;;;;;;;;;;5089971;28;20094;-75
2021/04/22 01:01:52;;;;;;;23.75;5.60;;;;;;;;;;5089627;28;20078;-74
2021/04/22 01:04:18;;;;;;;29.05;5.40;;;;;;;;;;5090586;28;20038;-77
2021/04/22 01:06:44;;;;;;;30.48;5.20;;;;;;;;;;5089891;28;20028;-77
2021/04/22 01:09:14;;;;;;;22.88;4.63;;;;;;;;;;5088409;28;20085;-76
2021/04/22 01:11:41;;;;;;;23.23;4.55;;;;;;;;;;5092098;28;20565;-77
2021/04/22 01:14:07;;;;;;;26.25;5.93;;;;;;;;;;5089764;28;20020;-77
2021/04/22 01:16:33;;;;;;;32.25;5.53;;;;;;;;;;5090531;28;20508;-76
2021/04/22 01:18:59;;;;;;;23.08;5.53;;;;;;;;;;5096856;28;20104;-75
2021/04/22 01:21:28;;;;;;;19.08;5.25;;;;;;;;;;5092793;28;20024;-79
2021/04/22 01:23:55;;;;;;;29.02;5.07;;;;;;;;;;5089415;28;20099;-76
2021/04/22 01:26:23;;;;;;;26.20;5.18;;;;;;;;;;5091379;28;20028;-76
2021/04/22 01:28:50;;;;;;;27.52;6.13;;;;;;;;;;5088297;28;20039;-78
2021/04/22 01:31:16;;;;;;;21.80;4.68;;;;;;;;;;5088456;28;20063;-78
2021/04/22 01:33:43;;;;;;;22.25;4.63;;;;;;;;;;5086983;28;20028;-75
2021/04/22 01:36:09;;;;;;;22.58;5.20;;;;;;;;;;5083416;28;20110;-76
2021/04/22 01:38:36;;;;;;;20.33;4.88;;;;;;;;;;5090348;28;20031;-75
2021/04/22 01:41:02;;;;;;;15.75;4.35;;;;;;;;;;5080845;28;20030;-75
2021/04/22 01:43:29;;;;;;;23.70;5.22;;;;;;;;;;5082054;28;20107;-75
2021/04/22 01:45:55;;;;;;;27.65;5.55;;;;;;;;;;5088057;28;20020;-75
2021/04/22 01:48:21;;;;;;;23.58;5.18;;;;;;;;;;5088775;28;20016;-75
2021/04/22 01:50:47;;;;;;;20.40;5.25;;;;;;;;;;5088406;28;20036;-75
2021/04/22 01:53:13;;;;;;;20.95;4.15;;;;;;;;;;5081827;28;20024;-75
2021/04/22 01:55:41;;;;;;;25.80;5.82;;;;;;;;;;5088672;28;20032;-75
2021/04/22 01:58:08;;;;;;;26.77;4.60;;;;;;;;;;5087069;28;20034;-75
2021/04/22 02:00:38;;;;;;;19.67;4.93;;;;;;;;;;5086088;28;20051;-75
2021/04/22 02:03:05;;;;;;;24.25;4.95;;;;;;;;;;5080032;28;20016;-75
2021/04/22 02:05:31;;;;;;;25.95;5.95;;;;;;;;;;5089716;28;20055;-76
2021/04/22 02:07:57;;;;;;;25.77;7.00;;;;;;;;;;5090295;28;20077;-75
2021/04/22 02:10:23;;;;;;;21.95;4.93;;;;;;;;;;5088555;28;20032;-76
2021/04/22 02:12:50;;;;;;;22.65;5.22;;;;;;;;;;5087948;28;20055;-76
2021/04/22 02:15:19;;;;;;;17.65;5.18;;;;;;;;;;5081047;28;20056;-76
2021/04/22 02:17:45;;;;;;;24.77;6.95;;;;;;;;;;5089852;28;20028;-76
2021/04/22 02:20:12;;;;;;;20.85;5.93;;;;;;;;;;5098038;28;20048;-76
2021/04/22 02:22:38;;;;;;;24.42;5.50;;;;;;;;;;5088711;28;20398;-76
2021/04/22 02:25:06;;;;;;;28.50;5.38;;;;;;;;;;5087875;28;20027;-77
2021/04/22 02:27:32;;;;;;;30.45;6.50;;;;;;;;;;5089708;28;20011;-76
2021/04/22 02:29:58;;;;;;;34.97;6.93;;;;;;;;;;5089013;28;20103;-77
2021/04/22 02:32:24;;;;;;;32.88;5.63;;;;;;;;;;5089873;28;20017;-76
2021/04/22 02:34:50;;;;;;;21.88;5.25;;;;;;;;;;5086812;28;20102;-75
2021/04/22 02:37:16;;;;;;;24.05;5.55;;;;;;;;;;5089222;28;20574;-75
2021/04/22 02:39:43;;;;;;;31.83;6.00;;;;;;;;;;5079036;28;20070;-75
2021/04/22 02:42:09;;;;;;;17.15;5.40;;;;;;;;;;5087920;28;20112;-76
2021/04/22 02:44:35;;;;;;;29.90;6.15;;;;;;;;;;5089872;28;20028;-76
2021/04/22 02:47:01;;;;;;;25.92;6.10;;;;;;;;;;5086245;28;20575;-76
2021/04/22 02:49:27;;;;;;;26.15;6.10;;;;;;;;;;5090152;28;20482;-76
2021/04/22 02:51:53;;;;;;;25.95;5.60;;;;;;;;;;5086494;28;20059;-76
2021/04/22 02:54:19;;;;;;;22.88;5.35;;;;;;;;;;5078840;28;20111;-76
2021/04/22 02:56:45;;;;;;;28.75;6.53;;;;;;;;;;5089716;28;20039;-76
2021/04/22 02:59:11;;;;;;;20.85;6.25;;;;;;;;;;5083505;28;20043;-76
2021/04/22 03:01:37;;;;;;;25.83;4.88;;;;;;;;;;5086734;28;20074;-76
2021/04/22 03:04:03;;;;;;;26.27;5.40;;;;;;;;;;5087229;28;20032;-75
2021/04/22 03:06:29;;;;;;;24.17;5.57;;;;;;;;;;5089033;28;20028;-75
2021/04/22 03:08:55;;;;;;;20.17;5.05;;;;;;;;;;5084436;28;20034;-75
2021/04/22 03:11:21;;;;;;;24.30;5.68;;;;;;;;;;5087652;28;20059;-75
2021/04/22 03:13:47;;;;;;;25.65;6.55;;;;;;;;;;5088950;28;20028;-75
2021/04/22 03:16:13;;;;;;;29.70;6.07;;;;;;;;;;5089714;28;20085;-75
2021/04/22 03:18:39;;;;;;;20.70;4.55;;;;;;;;;;5091945;28;20031;-79
2021/04/22 03:21:05;;;;;;;27.67;5.90;;;;;;;;;;5097570;28;20607;-76
2021/04/22 03:23:31;;;;;;;31.77;6.45;;;;;;;;;;5086224;28;20070;-77
2021/04/22 03:25:58;;;;;;;27.80;6.22;;;;;;;;;;5087937;28;20024;-75
2021/04/22 03:28:24;;;;;;;19.83;5.35;;;;;;;;;;5089575;28;20024;-75
2021/04/22 03:30:50;;;;;;;21.63;3.95;;;;;;;;;;5082749;28;20596;-75
2021/04/22 03:33:16;;;;;;;22.42;5.50;;;;;;;;;;5087456;28;20025;-75
2021/04/22 03:35:42;;;;;;;23.00;5.93;;;;;;;;;;5077185;28;20030;-76
2021/04/22 03:38:08;;;;;;;23.08;4.70;;;;;;;;;;5088104;28;20081;-76
2021/04/22 03:40:34;;;;;;;20.52;4.78;;;;;;;;;;5083866;28;20029;-77
2021/04/22 03:43:00;;;;;;;27.05;5.25;;;;;;;;;;5087480;28;20489;-75
2021/04/22 03:45:26;;;;;;;21.10;4.43;;;;;;;;;;5084821;28;20055;-75
2021/04/22 03:47:52;;;;;;;24.17;6.18;;;;;;;;;;5089883;28;20020;-76
2021/04/22 03:50:19;;;;;;;23.02;4.50;;;;;;;;;;5087841;28;20020;-76
2021/04/22 03:52:46;;;;;;;22.85;5.32;;;;;;;;;;5088995;28;20028;-76
2021/04/22 03:55:13;;;;;;;18.08;4.88;;;;;;;;;;5084472;28;20013;-76
2021/04/22 03:57:39;;;;;;;25.48;6.07;;;;;;;;;;5091101;28;20031;-75
2021/04/22 04:00:06;;;;;;;24.02;5.22;;;;;;;;;;5085244;28;20036;-76
2021/04/22 04:02:32;;;;;;;22.55;5.45;;;;;;;;;;5089158;28;20040;-76
2021/04/22 04:04:58;;;;;;;22.90;5.40;;;;;;;;;;5086454;28;20024;-76
2021/04/22 04:07:24;;;;;;;33.47;6.28;;;;;;;;;;5086448;28;20023;-76
2021/04/22 04:09:50;;;;;;;28.23;5.53;;;;;;;;;;5086542;28;20035;-75
2021/04/22 04:12:16;;;;;;;21.10;5.22;;;;;;;;;;5088489;28;20032;-75
2021/04/22 04:14:42;;;;;;;22.23;4.78;;;;;;;;;;5091560;28;20028;-75
2021/04/22 04:17:08;;;;;;;21.52;4.93;;;;;;;;;;5092816;28;20501;-75
2021/04/22 04:19:34;;;;;;;19.98;5.30;;;;;;;;;;5093843;28;20114;-76
2021/04/22 04:22:00;;;;;;;21.65;6.05;;;;;;;;;;5089811;28;20063;-76
2021/04/22 04:24:27;;;;;;;31.05;5.78;;;;;;;;;;5082952;28;20052;-76
2021/04/22 04:26:53;;;;;;;35.83;6.40;;;;;;;;;;5088001;28;20020;-76
2021/04/22 04:29:19;;;;;;;15.63;4.35;;;;;;;;;;5081356;28;20024;-75
2021/04/22 04:31:46;;;;;;;23.75;5.80;;;;;;;;;;5084875;28;20541;-75
2021/04/22 04:34:12;;;;;;;24.55;6.82;;;;;;;;;;5084838;28;20185;-75
2021/04/22 04:36:43;;;;;;;23.52;5.70;;;;;;;;;;5091775;28;20020;-75
2021/04/22 04:39:09;;;;;;;27.23;5.03;;;;;;;;;;5086775;28;20555;-75
2021/04/22 04:41:35;;;;;;;22.60;6.80;;;;;;;;;;5092224;28;20478;-75
2021/04/22 04:44:01;;;;;;;32.38;5.78;;;;;;;;;;5085152;28;20549;-75
2021/04/22 04:46:27;;;;;;;26.38;6.20;;;;;;;;;;5085807;28;20095;-76
2021/04/22 04:48:54;;;;;;;20.92;5.63;;;;;;;;;;5091566;28;20033;-76
2021/04/22 04:51:20;;;;;;;20.33;5.15;;;;;;;;;;5087426;28;20044;-75
2021/04/22 04:53:47;;;;;;;15.57;4.40;;;;;;;;;;5088815;28;20115;-75
2021/04/22 04:56:17;;;;;;;20.20;4.97;;;;;;;;;;5089057;28;20075;-75
2021/04/22 04:58:43;;;;;;;26.88;7.50;;;;;;;;;;5082180;28;20020;-76
2021/04/22 05:01:09;;;;;;;28.98;5.70;;;;;;;;;;5090007;28;20024;-75
2021/04/22 05:03:35;;;;;;;19.33;5.05;;;;;;;;;;5090209;28;20028;-75
2021/04/22 05:06:01;;;;;;;26.30;6.25;;;;;;;;;;5092625;28;20020;-75
2021/04/22 05:08:27;;;;;;;22.55;5.28;;;;;;;;;;5088844;28;20448;-75
2021/04/22 05:10:53;;;;;;;33.25;7.03;;;;;;;;;;5085095;28;20474;-75
2021/04/22 05:13:19;;;;;;;25.75;7.57;;;;;;;;;;5085282;28;20466;-75
2021/04/22 05:15:45;;;;;;;24.52;6.63;;;;;;;;;;5091947;28;20028;-75
2021/04/22 05:18:11;;;;;;;21.40;5.13;;;;;;;;;;5080620;28;20028;-75
2021/04/22 05:20:37;;;;;;;21.75;6.43;;;;;;;;;;5103618;28;20114;-74
2021/04/22 05:23:03;;;;;;;23.13;5.55;;;;;;;;;;5083006;28;20044;-75
2021/04/22 05:25:29;;;;;;;25.98;5.85;;;;;;;;;;5089699;28;20020;-75
2021/04/22 05:27:55;;;;;;;22.83;6.50;;;;;;;;;;5088667;28;20020;-75
2021/04/22 05:30:22;;;;;;;18.85;5.60;;;;;;;;;;5087793;28;20027;-74
2021/04/22 05:32:48;;;;;;;21.45;6.18;;;;;;;;;;5086261;28;20077;-74
2021/04/22 05:35:14;;;;;;;22.52;5.68;;;;;;;;;;5089741;28;20024;-75
2021/04/22 05:37:40;;;;;;;19.50;5.50;;;;;;;;;;5094315;28;20020;-75
2021/04/22 05:40:06;;;;;;;19.75;5.28;;;;;;;;;;5086495;28;20035;-74
2021/04/22 05:42:32;;;;;;;21.80;5.88;;;;;;;;;;5084908;28;20486;-76
2021/04/22 05:44:58;;;;;;;18.90;5.97;;;;;;;;;;5090063;28;20032;-75
2021/04/22 05:47:24;;;;;;;19.63;4.90;;;;;;;;;;5090326;28;20020;-75
2021/04/22 05:49:51;;;;;;;15.07;4.75;;;;;;;;;;5086529;28;20024;-75
2021/04/22 05:52:17;;;;;;;29.05;6.75;;;;;;;;;;5090631;28;20032;-75
2021/04/22 05:54:43;;;;;;;16.85;5.85;;;;;;;;;;5089450;28;20024;-75
2021/04/22 05:57:09;;;;;;;30.50;6.43;;;;;;;;;;5087655;28;20031;-75
2021/04/22 05:59:35;;;;;;;21.50;5.38;;;;;;;;;;5087432;28;20078;-75
2021/04/22 06:02:02;;;;;;;23.58;6.30;;;;;;;;;;5089206;28;20032;-76
2021/04/22 06:04:28;;;;;;;27.00;5.10;;;;;;;;;;5089116;28;20386;-75
2021/04/22 06:06:54;;;;;;;19.58;4.90;;;;;;;;;;5088503;28;20033;-76
2021/04/22 06:09:20;;;;;;;26.55;5.00;;;;;;;;;;5086110;28;20126;-75
2021/04/22 06:11:46;;;;;;;19.98;5.03;;;;;;;;;;5087124;28;20802;-76
2021/04/22 06:14:12;;;;;;;19.15;5.03;;;;;;;;;;5088482;28;20036;-75
2021/04/22 06:16:39;;;;;;;22.55;5.22;;;;;;;;;;5088155;28;20032;-76
2021/04/22 06:19:05;;;;;;;17.90;4.47;;;;;;;;;;5086217;28;20102;-75
2021/04/22 06:21:32;;;;;;;24.20;5.22;;;;;;;;;;5083680;28;20099;-75
2021/04/22 06:23:58;;;;;;;23.30;4.85;;;;;;;;;;5089453;28;20514;-76
2021/04/22 06:26:24;;;;;;;22.00;4.80;;;;;;;;;;5084786;28;20490;-78
2021/04/22 06:28:51;;;;;;;29.98;4.25;;;;;;;;;;5076033;28;20273;-77
2021/04/22 06:31:17;;;;;;;32.15;5.45;;;;;;;;;;5088274;28;20027;-77
2021/04/22 06:33:43;;;;;;;19.45;3.55;;;;;;;;;;5087712;28;20074;-75
2021/04/22 06:36:09;;;;;;;15.70;3.90;;;;;;;;;;5084442;28;20044;-78
2021/04/22 06:38:35;;;;;;;19.00;4.03;;;;;;;;;;5085909;28;20032;-79
2021/04/22 06:41:01;;;;;;;22.60;4.10;;;;;;;;;;5083282;28;20498;-77
2021/04/22 06:43:27;;;;;;;17.88;4.35;;;;;;;;;;5088899;28;20024;-78
2021/04/22 06:45:53;;;;;;;18.75;3.45;;;;;;;;;;5090268;28;20020;-78
2021/04/22 06:48:19;;;;;;;20.65;3.50;;;;;;;;;;5082202;28;20028;-76
2021/04/22 06:50:46;;;;;;;17.35;4.15;;;;;;;;;;5073611;28;20201;-78
2021/04/22 06:53:12;;;;;;;17.77;3.33;;;;;;;;;;5086698;28;20004;-77
2021/04/22 06:55:39;;;;;;;20.45;3.70;;;;;;;;;;5082476;28;20422;-78
2021/04/22 06:58:06;;;;;;;21.55;4.03;;;;;;;;;;5082933;28;20032;-77
2021/04/22 07:00:34;;;;;;;25.17;3.00;;;;;;;;;;5077828;28;20162;-77
2021/04/22 07:03:00;;;;;;;16.17;3.00;;;;;;;;;;5090572;28;20516;-77
2021/04/22 07:05:27;;;;;;;15.80;3.50;;;;;;;;;;5088490;28;20021;-77
2021/04/22 07:07:53;;;;;;;21.77;3.80;;;;;;;;;;5089405;28;20230;-77
2021/04/22 07:10:19;;;;;;;17.88;3.20;;;;;;;;;;5085612;28;20059;-76
2021/04/22 07:12:45;;;;;;;20.27;2.88;;;;;;;;;;5087585;28;20028;-76
2021/04/22 07:15:12;;;;;;;20.88;2.85;;;;;;;;;;5090707;28;20052;-76
2021/04/22 07:17:38;;;;;;;22.05;4.40;;;;;;;;;;5077464;28;20021;-78
2021/04/22 07:20:12;;;;;;;14.52;2.80;;;;;;;;;;5085802;28;20464;-76
2021/04/22 07:22:38;;;;;;;19.83;2.92;;;;;;;;;;5085578;28;21261;-79
2021/04/22 07:25:05;;;;;;;19.98;3.00;;;;;;;;;;5084742;28;20028;-76
2021/04/22 07:27:31;;;;;;;18.02;3.28;;;;;;;;;;5086918;28;20020;-76
2021/04/22 07:29:57;;;;;;;22.30;3.60;;;;;;;;;;5091576;28;20059;-78
2021/04/22 07:32:23;;;;;;;16.77;2.90;;;;;;;;;;5094137;28;20095;-77
2021/04/22 07:34:49;;;;;;;18.75;3.33;;;;;;;;;;5086186;28;20028;-78
2021/04/22 07:37:17;;;;;;;18.38;3.28;;;;;;;;;;5091948;28;20020;-77
2021/04/22 07:39:43;;;;;;;12.13;3.60;;;;;;;;;;5083024;28;20110;-77
2021/04/22 07:42:10;;;;;;;21.90;3.60;;;;;;;;;;5080172;28;20478;-79
2021/04/22 07:44:36;;;;;;;16.48;2.47;;;;;;;;;;5081289;28;20036;-76
2021/04/22 07:47:02;;;;;;;19.35;3.65;;;;;;;;;;5085285;28;20490;-77
2021/04/22 07:49:28;;;;;;;12.77;2.83;;;;;;;;;;5079367;28;20028;-79
2021/04/22 07:51:55;;;;;;;13.65;2.45;;;;;;;;;;5082284;28;20028;-78
2021/04/22 07:54:21;;;;;;;13.10;3.28;;;;;;;;;;5087427;28;20110;-81
2021/04/22 07:56:47;;;;;;;18.15;3.75;;;;;;;;;;5082889;28;20414;-76
2021/04/22 07:59:13;;;;;;;20.45;4.38;;;;;;;;;;5081169;28;20023;-73
2021/04/22 08:01:39;;;;;;;19.90;3.45;;;;;;;;;;5084863;28;20044;-74
2021/04/22 08:04:05;;;;;;;18.20;2.72;;;;;;;;;;5087321;28;20111;-76
2021/04/22 08:06:32;;;;;;;15.27;2.25;;;;;;;;;;5083271;28;20020;-78
2021/04/22 08:08:58;;;;;;;21.15;3.60;;;;;;;;;;5081131;28;20047;-78
2021/04/22 08:11:24;;;;;;;20.98;3.75;;;;;;;;;;5082904;28;20032;-80
2021/04/22 08:13:50;;;;;;;17.58;3.25;;;;;;;;;;5084729;28;20051;-81
2021/04/22 08:16:16;;;;;;;16.02;2.78;;;;;;;;;;5084082;28;20474;-80
2021/04/22 08:18:42;;;;;;;18.25;3.63;;;;;;;;;;5082982;28;20089;-76
2021/04/22 08:21:08;;;;;;;14.98;3.10;;;;;;;;;;5070731;28;20027;-75
2021/04/22 08:23:34;;;;;;;18.15;3.80;;;;;;;;;;5082795;28;20032;-73
2021/04/22 08:26:04;;;;;;;14.38;2.35;;;;;;;;;;5084377;28;20051;-79
2021/04/22 08:28:31;;;;;;;20.60;2.63;;;;;;;;;;5082451;28;20024;-79
2021/04/22 08:31:02;;;;;;;13.50;2.60;;;;;;;;;;5081375;28;20036;-79
2021/04/22 08:33:31;;;;;;;17.63;3.03;;;;;;;;;;5085258;28;20066;-81
2021/04/22 08:35:57;;;;;;;13.77;2.50;;;;;;;;;;5083374;28;20175;-77
2021/04/22 08:38:23;;;;;;;9.95;2.45;;;;;;;;;;5083859;28;20057;-82
2021/04/22 08:40:51;;;;;;;13.40;2.92;;;;;;;;;;5082797;28;20436;-79
2021/04/22 08:43:17;;;;;;;19.25;3.53;;;;;;;;;;5084360;28;20680;-77
2021/04/22 08:45:43;;;;;;;24.25;3.13;;;;;;;;;;5081302;28;20040;-77
2021/04/22 08:48:11;;;;;;;17.92;2.63;;;;;;;;;;5081541;28;20032;-81
2021/04/22 08:50:38;;;;;;;19.73;4.22;;;;;;;;;;5080785;28;20024;-80
2021/04/22 08:53:09;;;;;;;16.20;2.25;;;;;;;;;;5083308;28;20032;-78
2021/04/22 08:55:36;;;;;;;17.98;2.85;;;;;;;;;;5083702;28;20028;-79
2021/04/22 08:58:03;;;;;;;16.98;2.83;;;;;;;;;;5084288;28;20077;-82
2021/04/22 09:00:31;;;;;;;20.27;3.40;;;;;;;;;;5081517;28;20032;-81
2021/04/22 09:02:57;;;;;;;13.00;2.10;;;;;;;;;;5083463;28;20043;-80
2021/04/22 09:05:23;;;;;;;22.60;2.42;;;;;;;;;;5081551;28;20020;-73
2021/04/22 09:07:50;;;;;;;11.30;2.40;;;;;;;;;;5083271;28;20028;-78
2021/04/22 09:10:17;;;;;;;18.17;2.03;;;;;;;;;;5080075;28;20012;-75
2021/04/22 09:12:54;;;;;;;18.58;2.40;;;;;;;;;;5081014;28;20059;-76
2021/04/22 09:15:20;;;;;;;16.40;2.30;;;;;;;;;;5083743;28;20012;-77
2021/04/22 09:17:55;;;;;;;14.10;2.88;;;;;;;;;;5082784;28;20016;-80
2021/04/22 09:20:25;;;;;;;15.95;2.13;;;;;;;;;;5079838;28;20061;-79
2021/04/22 09:22:51;;;;;;;21.85;3.83;;;;;;;;;;5083591;28;20035;-78
2021/04/22 09:25:22;;;;;;;13.75;2.85;;;;;;;;;;5081922;28;20047;-78
2021/04/22 09:27:48;;;;;;;18.25;3.72;;;;;;;;;;5081762;28;20043;-80
2021/04/22 09:30:28;;;;;;;22.27;2.80;;;;;;;;;;5078768;28;20090;-79
2021/04/22 09:32:54;;;;;;;14.02;2.63;;;;;;;;;;5083400;28;20554;-78
2021/04/22 09:35:24;;;;;;;10.63;2.28;;;;;;;;;;5082690;28;20051;-73
2021/04/22 09:37:52;;;;;;;18.20;2.58;;;;;;;;;;5090444;28;20027;-78
2021/04/22 09:40:21;;;;;;;20.20;2.58;;;;;;;;;;5081802;28;20090;-80
2021/04/22 09:42:47;;;;;;;16.60;3.00;;;;;;;;;;5085867;28;20493;-79
2021/04/22 09:45:15;;;;;;;18.38;2.42;;;;;;;;;;5081918;28;20026;-76
2021/04/22 09:47:41;;;;;;;17.05;2.63;;;;;;;;;;5081213;28;20028;-79
2021/04/22 09:50:12;;;;;;;16.55;2.80;;;;;;;;;;5078364;28;20039;-78
2021/04/22 09:52:40;;;;;;;16.67;2.67;;;;;;;;;;5089651;28;20022;-79
2021/04/22 09:55:07;;;;;;;18.35;2.22;;;;;;;;;;5082176;28;20043;-79
2021/04/22 09:57:35;;;;;;;14.45;2.28;;;;;;;;;;5084646;28;20051;-74
2021/04/22 10:00:02;;;;;;;13.52;2.15;;;;;;;;;;5076437;28;20060;-75
2021/04/22 10:02:28;;;;;;;20.23;2.33;;;;;;;;;;5080319;28;20028;-80
2021/04/22 10:04:56;;;;;;;18.50;3.05;;;;;;;;;;5081685;28;20410;-80
2021/04/22 10:07:22;;;;;;;14.32;2.05;;;;;;;;;;5081889;28;20097;-77
2021/04/22 10:09:48;;;;;;;12.73;2.67;;;;;;;;;;5076488;28;20559;-80
2021/04/22 10:12:21;;;;;;;14.90;2.53;;;;;;;;;;5088770;28;20030;-79
2021/04/22 10:14:48;;;;;;;16.35;2.22;;;;;;;;;;5080723;28;20111;-78
2021/04/22 10:17:24;;;;;;;15.35;2.70;;;;;;;;;;5086525;28;20020;-79
2021/04/22 10:19:57;;;;;;;13.43;3.22;;;;;;;;;;5080712;28;20474;-80
2021/04/22 10:22:30;;;;;;;20.52;2.70;;;;;;;;;;5085630;28;20029;-77
2021/04/22 10:24:57;;;;;;;15.32;2.47;;;;;;;;;;5080694;28;20030;-81
2021/04/22 10:27:24;;;;;;;18.85;3.08;;;;;;;;;;5084821;28;20489;-79
2021/04/22 10:29:50;;;;;;;12.90;2.08;;;;;;;;;;5084057;28;20043;-81
2021/04/22 10:32:16;;;;;;;13.48;3.20;;;;;;;;;;5088246;28;20028;-79
2021/04/22 10:34:42;;;;;;;15.05;2.63;;;;;;;;;;5082982;28;20040;-80
2021/04/22 10:37:09;;;;;;;15.63;2.83;;;;;;;;;;5087678;28;20440;-82
2021/04/22 10:39:35;;;;;;;15.88;2.05;;;;;;;;;;5079791;28;20024;-80
2021/04/22 10:42:02;;;;;;;14.88;2.58;;;;;;;;;;5082449;28;20028;-78
2021/04/22 10:44:31;;;;;;;19.58;3.15;;;;;;;;;;5088139;28;20446;-79
2021/04/22 10:46:58;;;;;;;15.30;2.45;;;;;;;;;;5087167;28;20494;-79
2021/04/22 10:49:24;;;;;;;11.50;3.08;;;;;;;;;;5084717;28;20021;-79
2021/04/22 10:51:50;;;;;;;19.58;3.60;;;;;;;;;;5087644;28;20249;-76
2021/04/22 10:54:17;;;;;;;13.68;2.22;;;;;;;;;;5087931;28;20020;-79
2021/04/22 10:56:45;;;;;;;22.73;4.07;;;;;;;;;;5086760;28;20089;-76
2021/04/22 10:59:21;;;;;;;17.33;2.65;;;;;;;;;;5084431;28;20040;-79
2021/04/22 11:01:47;;;;;;;17.70;2.58;;;;;;;;;;5085443;28;20024;-78
2021/04/22 11:04:13;;;;;;;19.90;3.47;;;;;;;;;;5093726;28;20024;-75
2021/04/22 11:06:41;;;;;;;12.20;2.50;;;;;;;;;;5085920;28;20078;-77
2021/04/22 11:09:16;;;;;;;13.15;2.60;;;;;;;;;;5082723;28;20066;-79
2021/04/22 11:12:01;;;;;;;15.68;3.38;;;;;;;;;;5088993;28;20066;-80
2021/04/22 11:14:38;;;;;;;17.80;3.58;;;;;;;;;;5077798;28;20032;-76
2021/04/22 11:17:05;;;;;;;11.57;2.20;;;;;;;;;;5090088;28;20478;-81
2021/04/22 11:19:32;;;;;;;13.75;2.10;;;;;;;;;;5089026;28;20127;-80
2021/04/22 11:21:59;;;;;;;18.13;2.67;;;;;;;;;;5083058;28;20063;-78
2021/04/22 11:24:27;;;;;;;13.55;3.05;;;;;;;;;;5090145;28;20035;-78
2021/04/22 11:27:07;;;;;;;9.82;2.58;;;;;;;;;;5085962;28;20109;-78
2021/04/22 11:29:42;;;;;;;11.30;3.38;;;;;;;;;;5078952;28;20032;-74
2021/04/22 11:32:17;;;;;;;17.75;3.45;;;;;;;;;;5082897;28;20030;-77
2021/04/22 11:34:43;;;;;;;18.02;2.83;;;;;;;;;;5084685;28;20078;-79
2021/04/22 11:37:14;;;;;;;9.02;2.40;;;;;;;;;;5088466;28;20398;-81
2021/04/22 11:39:40;;;;;;;15.65;2.63;;;;;;;;;;5081377;28;20020;-80
2021/04/22 11:42:06;;;;;;;12.25;2.00;;;;;;;;;;5083707;28;20035;-72
2021/04/22 11:44:37;;;;;;;22.67;3.30;;;;;;;;;;5083627;28;20027;-75
2021/04/22 11:47:20;;;;;;;20.35;3.28;;;;;;;;;;5083158;28;20032;-73
2021/04/22 11:49:47;;;;;;;18.60;2.58;;;;;;;;;;5067479;28;20032;-74
2021/04/22 11:52:18;;;;;;;12.48;3.05;;;;;;;;;;5085615;28;20020;-76
2021/04/22 11:54:44;;;;;;;14.60;2.30;;;;;;;;;;5084155;28;20086;-75
2021/04/22 11:57:10;;;;;;;18.85;3.35;;;;;;;;;;5089421;28;20032;-73
2021/04/22 11:59:37;;;;;;;13.52;3.17;;;;;;;;;;5088957;28;20024;-77
2021/04/22 12:02:08;;;;;;;16.20;2.70;;;;;;;;;;5090206;28;20447;-76
2021/04/22 12:04:39;;;;;;;12.57;2.75;;;;;;;;;;5090938;28;20020;-77
2021/04/22 12:07:06;;;;;;;12.52;2.88;;;;;;;;;;5092665;28;20104;-79
2021/04/22 12:09:33;;;;;;;12.57;2.72;;;;;;;;;;5086466;28;20074;-77
2021/04/22 12:12:19;;;;;;;12.73;3.47;;;;;;;;;;5090058;28;20039;-75
2021/04/22 12:14:46;;;;;;;13.95;2.83;;;;;;;;;;5075600;28;20402;-77
2021/04/22 12:17:24;;;;;;;17.25;2.50;;;;;;;;;;5088390;28;20048;-76
2021/04/22 12:19:55;;;;;;;12.25;2.47;;;;;;;;;;5094779;28;20311;-77
2021/04/22 12:22:30;;;;;;;7.43;2.15;;;;;;;;;;5091724;28;20039;-80
2021/04/22 12:24:57;;;;;;;18.75;3.42;;;;;;;;;;5073263;28;20066;-73
2021/04/22 12:27:49;;;;;;;7.15;2.30;;;;;;;;;;5083006;28;20078;-73
2021/04/22 12:30:21;;;;;;;24.83;3.20;;;;;;;;;;5077036;28;20040;-75
2021/04/22 12:32:52;;;;;;;18.15;3.20;;;;;;;;;;5089394;28;20016;-72
2021/04/22 12:35:19;;;;;;;15.55;3.25;;;;;;;;;;5076544;28;20020;-75
2021/04/22 12:37:45;;;;;;;16.17;3.05;;;;;;;;;;5092542;28;20139;-78
2021/04/22 12:40:11;;;;;;;16.25;3.50;;;;;;;;;;5081758;28;20080;-79
2021/04/22 12:42:37;;;;;;;11.77;2.92;;;;;;;;;;5090484;28;20024;-79
2021/04/22 12:45:09;;;;;;;11.82;2.83;;;;;;;;;;5087709;28;20032;-76
2021/04/22 12:47:53;;;;;;;9.15;2.85;;;;;;;;;;5089997;28;20491;-78
2021/04/22 12:50:25;;;;;;;14.27;3.15;;;;;;;;;;5083537;28;20396;-77
2021/04/22 12:53:20;;;;;;;12.02;2.90;;;;;;;;;;5081476;28;20589;-76
2021/04/22 12:55:48;;;;;;;12.63;2.58;;;;;;;;;;5072396;28;20043;-77
2021/04/22 12:58:16;;;;;;;15.95;2.97;;;;;;;;;;5086715;28;20025;-78
2021/04/22 13:00:46;;;;;;;9.68;3.15;;;;;;;;;;5086699;28;20059;-78
2021/04/22 13:03:25;;;;;;;12.45;3.20;;;;;;;;;;5084383;28;20509;-78
2021/04/22 13:05:52;;;;;;;12.32;3.75;;;;;;;;;;5087990;28;20036;-77
2021/04/22 13:08:19;;;;;;;9.48;2.90;;;;;;;;;;5080869;28;20016;-77
2021/04/22 13:10:45;;;;;;;15.50;2.75;;;;;;;;;;5080319;28;20049;-76
2021/04/22 13:13:12;;;;;;;12.13;2.42;;;;;;;;;;5084859;28;20024;-76
2021/04/22 13:15:39;;;;;;;18.83;4.38;;;;;;;;;;5085458;28;20031;-80
2021/04/22 13:18:09;;;;;;;14.32;2.95;;;;;;;;;;5086426;28;20024;-77
2021/04/22 13:20:40;;;;;;;11.30;2.83;;;;;;;;;;5085262;28;20047;-75
2021/04/22 13:23:06;;;;;;;10.18;3.97;;;;;;;;;;5085497;28;20074;-74
2021/04/22 13:25:33;;;;;;;15.48;4.30;;;;;;;;;;5081489;28;20028;-75
2021/04/22 13:28:08;;;;;;;22.42;3.42;;;;;;;;;;5089813;28;20024;-76
2021/04/22 13:30:35;;;;;;;11.25;2.60;;;;;;;;;;5084411;28;20021;-76
2021/04/22 13:33:05;;;;;;;10.95;2.53;;;;;;;;;;5085650;28;20048;-75
2021/04/22 13:35:31;;;;;;;14.98;3.13;;;;;;;;;;5082834;28;20078;-76
2021/04/22 13:37:59;;;;;;;14.38;2.72;;;;;;;;;;5087243;28;20048;-75
2021/04/22 13:40:25;;;;;;;14.75;3.08;;;;;;;;;;5079737;28;20049;-73
2021/04/22 13:42:51;;;;;;;10.02;2.70;;;;;;;;;;5088145;28;20036;-77
2021/04/22 13:45:19;;;;;;;10.65;3.10;;;;;;;;;;5079434;28;20034;-79
2021/04/22 13:47:45;;;;;;;11.60;3.22;;;;;;;;;;5087693;28;20020;-77
2021/04/22 13:50:11;;;;;;;11.20;2.92;;;;;;;;;;5087853;28;20193;-75
2021/04/22 13:52:37;;;;;;;11.82;3.13;;;;;;;;;;5085919;28;20039;-74
2021/04/22 13:55:04;;;;;;;10.90;2.40;;;;;;;;;;5087362;28;20478;-76
2021/04/22 13:57:40;;;;;;;11.98;2.88;;;;;;;;;;5083982;28;20099;-78
2021/04/22 14:00:25;;;;;;;14.00;3.22;;;;;;;;;;5087467;28;20031;-74
2021/04/22 14:02:52;;;;;;;16.55;3.22;;;;;;;;;;5080533;28;20544;-77
2021/04/22 14:05:19;;;;;;;12.45;2.85;;;;;;;;;;5088906;28;20085;-74
2021/04/22 14:07:52;;;;;;;14.23;2.78;;;;;;;;;;5078425;28;20023;-74
2021/04/22 14:10:33;;;;;;;9.98;3.15;;;;;;;;;;5073174;28;20544;-76
2021/04/22 14:12:59;;;;;;;12.05;2.95;;;;;;;;;;5081259;28;20020;-76
2021/04/22 14:15:25;;;;;;;14.20;2.85;;;;;;;;;;5085870;28;20097;-79
2021/04/22 14:17:51;;;;;;;9.50;2.42;;;;;;;;;;5082788;28;20052;-75
2021/04/22 14:20:18;;;;;;;7.65;2.63;;;;;;;;;;5081354;28;20514;-76
2021/04/22 14:22:44;;;;;;;15.95;2.92;;;;;;;;;;5083338;28;20028;-76
2021/04/22 14:25:10;;;;;;;13.07;2.83;;;;;;;;;;5086213;28;20559;-75
2021/04/22 14:27:36;;;;;;;13.10;2.42;;;;;;;;;;5077467;28;20028;-73
2021/04/22 14:30:04;;;;;;;13.10;2.38;;;;;;;;;;5082498;28;20036;-76
2021/04/22 14:32:30;;;;;;;12.85;2.83;;;;;;;;;;5082561;28;20032;-75